createdAt,value
2023-04-06T00:00:04.000Z,0
2023-04-06T00:01:20.000Z,0
2023-04-06T00:02:36.000Z,0
2023-04-06T00:03:53.000Z,0
2023-04-06T00:05:09.000Z,0
2023-04-06T00:06:25.000Z,0
2023-04-06T00:07:41.000Z,0
2023-04-06T00:08:56.000Z,0
2023-04-06T00:10:12.000Z,0
2023-04-06T00:11:29.000Z,0
2023-04-06T00:12:45.000Z,0
2023-04-06T00:14:01.000Z,0
2023-04-06T00:15:17.000Z,0
2023-04-06T00:16:33.000Z,0
2023-04-06T00:17:50.000Z,0
2023-04-06T00:19:06.000Z,0
2023-04-06T00:20:22.000Z,0
2023-04-06T00:21:38.000Z,0
2023-04-06T00:22:54.000Z,0
2023-04-06T00:24:11.000Z,0
2023-04-06T00:25:26.000Z,0
2023-04-06T00:26:42.000Z,0
2023-04-06T00:27:58.000Z,0
2023-04-06T00:29:14.000Z,0
2023-04-06T00:30:31.000Z,0
2023-04-06T00:31:47.000Z,0
2023-04-06T00:33:03.000Z,0
2023-04-06T00:34:19.000Z,0
2023-04-06T00:35:35.000Z,0
2023-04-06T00:36:52.000Z,0
2023-04-06T00:38:08.000Z,0
2023-04-06T00:39:24.000Z,0
2023-04-06T00:40:40.000Z,0
2023-04-06T00:41:55.000Z,0
2023-04-06T00:43:11.000Z,0
2023-04-06T00:44:28.000Z,0
2023-04-06T00:45:44.000Z,0
2023-04-06T00:47:00.000Z,0
2023-04-06T00:48:16.000Z,0
2023-04-06T00:49:32.000Z,0
2023-04-06T00:50:49.000Z,0
2023-04-06T00:52:05.000Z,0
2023-04-06T00:53:21.000Z,0
2023-04-06T00:54:37.000Z,0
2023-04-06T00:55:53.000Z,0
2023-04-06T00:57:10.000Z,0
2023-04-06T00:58:26.000Z,0
2023-04-06T00:59:41.000Z,0
2023-04-06T01:00:57.000Z,0
2023-04-06T01:02:13.000Z,0
2023-04-06T01:03:30.000Z,0
2023-04-06T01:04:46.000Z,0
2023-04-06T01:06:02.000Z,0
2023-04-06T01:07:18.000Z,0
2023-04-06T01:08:34.000Z,0
2023-04-06T01:09:50.000Z,0
2023-04-06T01:11:07.000Z,0
2023-04-06T01:12:23.000Z,0
2023-04-06T01:13:39.000Z,0
2023-04-06T01:14:55.000Z,0
2023-04-06T01:16:10.000Z,0
2023-04-06T01:17:27.000Z,0
2023-04-06T01:18:43.000Z,0
2023-04-06T01:19:59.000Z,0
2023-04-06T01:21:15.000Z,0
2023-04-06T01:22:30.000Z,0
2023-04-06T01:23:47.000Z,0
2023-04-06T01:25:03.000Z,0
2023-04-06T01:26:19.000Z,0
2023-04-06T01:27:35.000Z,0
2023-04-06T01:28:51.000Z,0
2023-04-06T01:30:08.000Z,0
2023-04-06T01:31:24.000Z,0
2023-04-06T01:32:40.000Z,0
2023-04-06T01:33:56.000Z,0
2023-04-06T01:35:12.000Z,0
2023-04-06T01:36:29.000Z,0
2023-04-06T01:37:45.000Z,0
2023-04-06T01:39:00.000Z,0
2023-04-06T01:40:16.000Z,0
2023-04-06T01:41:32.000Z,0
2023-04-06T01:42:48.000Z,0
2023-04-06T01:44:05.000Z,0
2023-04-06T01:45:21.000Z,0
2023-04-06T01:46:37.000Z,0
2023-04-06T01:47:53.000Z,0
2023-04-06T01:49:09.000Z,0
2023-04-06T01:50:26.000Z,0
2023-04-06T01:51:42.000Z,0
2023-04-06T01:52:58.000Z,0
2023-04-06T01:54:14.000Z,0
2023-04-06T01:55:29.000Z,0
2023-04-06T01:56:46.000Z,0
2023-04-06T01:58:02.000Z,0
2023-04-06T01:59:18.000Z,0
2023-04-06T02:00:34.000Z,0
2023-04-06T02:01:50.000Z,0
2023-04-06T02:03:07.000Z,0
2023-04-06T02:04:23.000Z,0
2023-04-06T02:05:39.000Z,0
2023-04-06T02:06:55.000Z,0
2023-04-06T02:08:11.000Z,0
2023-04-06T02:09:27.000Z,0
2023-04-06T02:10:44.000Z,0
2023-04-06T02:11:59.000Z,0
2023-04-06T02:13:15.000Z,0
2023-04-06T02:14:31.000Z,0
2023-04-06T02:15:47.000Z,0
2023-04-06T02:17:04.000Z,0
2023-04-06T02:18:20.000Z,0
2023-04-06T02:19:36.000Z,0
2023-04-06T02:20:52.000Z,0
2023-04-06T02:22:08.000Z,0
2023-04-06T02:23:25.000Z,0
2023-04-06T02:24:41.000Z,0
2023-04-06T02:25:57.000Z,0
2023-04-06T02:27:13.000Z,0
2023-04-06T02:28:28.000Z,0
2023-04-06T02:29:45.000Z,0
2023-04-06T02:31:01.000Z,0
2023-04-06T02:32:17.000Z,0
2023-04-06T02:33:33.000Z,0
2023-04-06T02:34:49.000Z,0
2023-04-06T02:36:05.000Z,0
2023-04-06T02:37:22.000Z,0
2023-04-06T02:38:38.000Z,0
2023-04-06T02:39:54.000Z,0
2023-04-06T02:41:10.000Z,0
2023-04-06T02:42:26.000Z,0
2023-04-06T02:43:43.000Z,0
2023-04-06T02:44:58.000Z,0
2023-04-06T02:46:14.000Z,0
2023-04-06T02:47:30.000Z,0
2023-04-06T02:48:46.000Z,0
2023-04-06T02:50:03.000Z,0
2023-04-06T02:51:19.000Z,0
2023-04-06T02:52:35.000Z,0
2023-04-06T02:53:51.000Z,0
2023-04-06T02:55:07.000Z,0
2023-04-06T02:56:24.000Z,0
2023-04-06T02:57:40.000Z,0
2023-04-06T02:58:56.000Z,0
2023-04-06T03:00:12.000Z,0
2023-04-06T03:01:27.000Z,0
2023-04-06T03:02:44.000Z,0
2023-04-06T03:04:00.000Z,0
2023-04-06T03:05:16.000Z,0
2023-04-06T03:06:32.000Z,0
2023-04-06T03:07:48.000Z,0
2023-04-06T03:09:04.000Z,0
2023-04-06T03:10:21.000Z,0
2023-04-06T03:11:37.000Z,0
2023-04-06T03:12:53.000Z,0
2023-04-06T03:14:09.000Z,0
2023-04-06T03:15:25.000Z,0
2023-04-06T03:16:42.094Z,0
2023-04-06T03:17:57.000Z,0
2023-04-06T03:19:13.000Z,0
2023-04-06T03:20:29.000Z,0
2023-04-06T03:21:45.000Z,0
2023-04-06T03:23:02.000Z,0
2023-04-06T03:24:18.000Z,0
2023-04-06T03:25:34.000Z,0
2023-04-06T03:26:50.000Z,0
2023-04-06T03:28:06.000Z,0
2023-04-06T03:29:23.000Z,0
2023-04-06T03:30:39.000Z,0
2023-04-06T03:31:55.000Z,0
2023-04-06T03:33:11.000Z,0
2023-04-06T03:34:26.000Z,0
2023-04-06T03:35:42.000Z,0
2023-04-06T03:36:59.000Z,0
2023-04-06T03:38:15.000Z,0
2023-04-06T03:39:31.000Z,0
2023-04-06T03:40:47.000Z,0
2023-04-06T03:42:03.000Z,0
2023-04-06T03:43:20.000Z,0
2023-04-06T03:44:36.000Z,0
2023-04-06T03:45:52.000Z,0
2023-04-06T03:47:08.000Z,0
2023-04-06T03:48:24.000Z,0
2023-04-06T03:49:41.000Z,0
2023-04-06T03:50:56.000Z,0
2023-04-06T03:52:12.000Z,0
2023-04-06T03:53:28.000Z,0
2023-04-06T03:54:44.000Z,0
2023-04-06T03:56:01.000Z,0
2023-04-06T03:57:17.000Z,0
2023-04-06T03:58:33.000Z,0
2023-04-06T03:59:49.000Z,0
2023-04-06T04:01:05.000Z,0
2023-04-06T04:02:21.000Z,0
2023-04-06T04:03:38.000Z,0
2023-04-06T04:04:54.000Z,0
2023-04-06T04:06:10.000Z,0
2023-04-06T04:07:25.000Z,0
2023-04-06T04:08:41.000Z,0
2023-04-06T04:09:58.000Z,0
2023-04-06T04:11:14.000Z,0
2023-04-06T04:12:30.000Z,0
2023-04-06T04:13:46.000Z,0
2023-04-06T04:15:02.000Z,0
2023-04-06T04:16:19.000Z,0
2023-04-06T04:17:35.000Z,0
2023-04-06T04:18:51.000Z,0
2023-04-06T04:20:07.000Z,4
2023-04-06T04:21:23.000Z,0
2023-04-06T04:22:40.000Z,0
2023-04-06T04:23:55.000Z,0
2023-04-06T04:25:11.000Z,4
2023-04-06T04:26:27.000Z,4
2023-04-06T04:27:43.000Z,8
2023-04-06T04:28:59.000Z,8
2023-04-06T04:30:16.000Z,8
2023-04-06T04:31:32.000Z,8
2023-04-06T04:32:48.000Z,16
2023-04-06T04:34:04.000Z,16
2023-04-06T04:35:20.000Z,20
2023-04-06T04:36:37.000Z,24
2023-04-06T04:37:53.000Z,28
2023-04-06T04:39:09.000Z,36
2023-04-06T04:40:24.000Z,44
2023-04-06T04:41:40.000Z,52
2023-04-06T04:42:57.000Z,64
2023-04-06T04:44:13.000Z,76
2023-04-06T04:45:29.000Z,88
2023-04-06T04:46:45.000Z,108
2023-04-06T04:48:01.000Z,128
2023-04-06T04:49:18.000Z,144
2023-04-06T04:50:34.000Z,168
2023-04-06T04:51:50.000Z,196
2023-04-06T04:53:06.000Z,220
2023-04-06T04:54:22.000Z,252
2023-04-06T04:55:38.000Z,280
2023-04-06T04:56:54.000Z,312
2023-04-06T04:58:10.000Z,352
2023-04-06T04:59:26.000Z,388
2023-04-06T05:00:42.000Z,428
2023-04-06T05:01:58.000Z,468
2023-04-06T05:03:15.000Z,516
2023-04-06T05:04:31.000Z,560
2023-04-06T05:05:47.000Z,608
2023-04-06T05:07:03.000Z,660
2023-04-06T05:08:19.000Z,712
2023-04-06T05:09:36.000Z,768
2023-04-06T05:10:52.000Z,824
2023-04-06T05:12:08.000Z,884
2023-04-06T05:13:23.000Z,956
2023-04-06T05:14:39.000Z,1060
2023-04-06T05:15:56.000Z,1104
2023-04-06T05:17:12.000Z,1148
2023-04-06T05:18:28.000Z,1212
2023-04-06T05:19:44.000Z,1276
2023-04-06T05:21:00.000Z,1340
2023-04-06T05:22:16.000Z,1448
2023-04-06T05:23:33.000Z,1460
2023-04-06T05:24:49.000Z,1592
2023-04-06T05:26:05.000Z,1848
2023-04-06T05:27:21.000Z,2056
2023-04-06T05:28:37.000Z,2152
2023-04-06T05:29:53.000Z,2268
2023-04-06T05:31:09.000Z,2376
2023-04-06T05:32:25.000Z,2480
2023-04-06T05:33:41.000Z,2588
2023-04-06T05:34:57.000Z,2668
2023-04-06T05:36:14.000Z,2720
2023-04-06T05:37:29.000Z,2596
2023-04-06T05:38:45.000Z,2392
2023-04-06T05:40:01.000Z,2432
2023-04-06T05:41:17.000Z,2844
2023-04-06T05:42:34.000Z,3232
2023-04-06T05:43:50.000Z,3412
2023-04-06T05:45:06.000Z,3512
2023-04-06T05:46:22.000Z,3644
2023-04-06T05:47:38.000Z,3708
2023-04-06T05:48:55.000Z,3756
2023-04-06T05:50:11.000Z,3660
2023-04-06T05:51:27.000Z,3192
2023-04-06T05:52:43.000Z,3004
2023-04-06T05:53:58.000Z,3016
2023-04-06T05:55:14.000Z,3060
2023-04-06T05:56:31.000Z,3112
2023-04-06T05:57:47.000Z,3172
2023-04-06T05:59:03.000Z,3408
2023-04-06T06:00:19.000Z,4128
2023-04-06T06:01:35.000Z,4640
2023-04-06T06:02:52.000Z,4828
2023-04-06T06:04:08.000Z,5104
2023-04-06T06:05:24.000Z,5408
2023-04-06T06:06:40.000Z,5596
2023-04-06T06:07:56.000Z,5744
2023-04-06T06:09:13.000Z,5952
2023-04-06T06:10:28.000Z,6052
2023-04-06T06:11:44.000Z,5892
2023-04-06T06:13:00.000Z,5544
2023-04-06T06:14:16.000Z,4768
2023-04-06T06:15:33.000Z,4056
2023-04-06T06:16:49.000Z,4224
2023-04-06T06:18:05.000Z,5396
2023-04-06T06:19:21.000Z,6140
2023-04-06T06:20:37.000Z,6156
2023-04-06T06:21:53.000Z,6440
2023-04-06T06:23:10.000Z,6680
2023-04-06T06:24:26.000Z,6764
2023-04-06T06:25:42.000Z,5864
2023-04-06T06:26:57.000Z,4600
2023-04-06T06:28:13.000Z,4432
2023-04-06T06:29:30.000Z,4428
2023-04-06T06:30:46.000Z,4444
2023-04-06T06:32:02.000Z,4448
2023-04-06T06:33:18.000Z,4496
2023-04-06T06:34:34.000Z,4604
2023-04-06T06:35:51.000Z,5948
2023-04-06T06:37:07.000Z,9016
2023-04-06T06:38:23.000Z,9868
2023-04-06T06:39:39.000Z,10504
2023-04-06T06:40:55.000Z,10796
2023-04-06T06:42:12.000Z,11400
2023-04-06T06:43:27.000Z,12068
2023-04-06T06:44:43.000Z,11260
2023-04-06T06:45:59.000Z,10020
2023-04-06T06:47:15.000Z,10956
2023-04-06T06:48:31.000Z,12248
2023-04-06T06:49:48.000Z,9568
2023-04-06T06:51:04.000Z,5748
2023-04-06T06:52:20.000Z,5228
2023-04-06T06:53:36.000Z,6416
2023-04-06T06:54:52.000Z,11372
2023-04-06T06:56:09.000Z,13300
2023-04-06T06:57:25.000Z,13896
2023-04-06T06:58:41.000Z,13644
2023-04-06T06:59:56.000Z,10644
2023-04-06T07:01:12.000Z,5868
2023-04-06T07:02:29.000Z,5256
2023-04-06T07:03:45.000Z,5180
2023-04-06T07:05:01.000Z,5156
2023-04-06T07:06:17.000Z,5136
2023-04-06T07:07:33.000Z,5120
2023-04-06T07:08:50.000Z,5172
2023-04-06T07:10:06.000Z,5324
2023-04-06T07:11:22.000Z,5600
2023-04-06T07:12:38.000Z,10604
2023-04-06T07:13:54.000Z,16576
2023-04-06T07:15:10.000Z,17056
2023-04-06T07:16:26.000Z,16800
2023-04-06T07:17:42.000Z,17088
2023-04-06T07:18:58.000Z,18080
2023-04-06T07:20:14.000Z,18976
2023-04-06T07:21:30.000Z,14256
2023-04-06T07:22:47.000Z,6952
2023-04-06T07:24:03.000Z,5520
2023-04-06T07:25:19.000Z,5384
2023-04-06T07:26:35.000Z,5320
2023-04-06T07:27:51.000Z,5284
2023-04-06T07:29:08.000Z,5252
2023-04-06T07:30:24.000Z,5228
2023-04-06T07:31:40.000Z,5220
2023-04-06T07:32:55.000Z,5212
2023-04-06T07:34:11.000Z,5220
2023-04-06T07:35:28.000Z,5244
2023-04-06T07:36:44.000Z,5308
2023-04-06T07:38:00.000Z,5392
2023-04-06T07:39:16.000Z,5468
2023-04-06T07:40:32.000Z,5544
2023-04-06T07:41:48.000Z,5608
2023-04-06T07:43:05.000Z,5672
2023-04-06T07:44:21.000Z,5728
2023-04-06T07:45:37.000Z,5760
2023-04-06T07:46:53.000Z,5780
2023-04-06T07:48:09.000Z,5784
2023-04-06T07:49:25.000Z,5784
2023-04-06T07:50:41.000Z,5800
2023-04-06T07:51:57.000Z,5824
2023-04-06T07:53:13.000Z,5852
2023-04-06T07:54:29.000Z,5884
2023-04-06T07:55:46.000Z,5912
2023-04-06T07:57:02.000Z,5940
2023-04-06T07:58:18.000Z,5976
2023-04-06T07:59:34.000Z,6008
2023-04-06T08:00:50.000Z,6048
2023-04-06T08:02:07.000Z,6088
2023-04-06T08:03:23.000Z,6120
2023-04-06T08:04:39.000Z,6156
2023-04-06T08:05:54.000Z,6176
2023-04-06T08:07:10.000Z,6212
2023-04-06T08:08:26.000Z,6240
2023-04-06T08:09:43.000Z,6264
2023-04-06T08:10:59.000Z,6292
2023-04-06T08:12:15.000Z,6320
2023-04-06T08:13:31.000Z,6356
2023-04-06T08:14:47.000Z,6404
2023-04-06T08:16:04.000Z,6448
2023-04-06T08:17:20.000Z,6516
2023-04-06T08:18:36.000Z,6564
2023-04-06T08:19:52.000Z,6576
2023-04-06T08:21:08.000Z,6612
2023-04-06T08:22:24.000Z,6688
2023-04-06T08:23:40.000Z,6820
2023-04-06T08:24:56.000Z,9616
2023-04-06T08:26:12.000Z,23264
2023-04-06T08:27:28.000Z,20064
2023-04-06T08:28:45.000Z,15172
2023-04-06T08:30:01.000Z,17024
2023-04-06T08:31:17.000Z,19360
2023-04-06T08:32:33.000Z,21088
2023-04-06T08:33:49.000Z,22208
2023-04-06T08:35:05.000Z,14396
2023-04-06T08:36:22.000Z,7644
2023-04-06T08:37:38.000Z,7088
2023-04-06T08:38:53.000Z,6992
2023-04-06T08:40:09.000Z,6980
2023-04-06T08:41:25.000Z,6996
2023-04-06T08:42:42.000Z,7012
2023-04-06T08:43:58.000Z,7032
2023-04-06T08:45:14.000Z,7072
2023-04-06T08:46:30.000Z,7104
2023-04-06T08:47:46.000Z,7136
2023-04-06T08:49:03.000Z,7168
2023-04-06T08:50:19.000Z,7184
2023-04-06T08:51:35.000Z,7212
2023-04-06T08:52:51.000Z,7244
2023-04-06T08:54:07.000Z,7272
2023-04-06T08:55:23.000Z,7272
2023-04-06T08:56:39.000Z,7228
2023-04-06T08:57:55.000Z,7120
2023-04-06T08:59:11.000Z,7108
2023-04-06T09:00:27.000Z,7256
2023-04-06T09:01:43.000Z,7448
2023-04-06T09:03:00.000Z,7660
2023-04-06T09:04:16.000Z,8228
2023-04-06T09:05:32.000Z,24288
2023-04-06T09:06:48.000Z,40384
2023-04-06T09:08:04.000Z,36992
2023-04-06T09:09:21.000Z,13888
2023-04-06T09:10:37.000Z,11612
2023-04-06T09:11:52.000Z,12640
2023-04-06T09:13:08.000Z,12904
2023-04-06T09:14:24.000Z,14096
2023-04-06T09:15:41.000Z,12156
2023-04-06T09:16:57.000Z,8180
2023-04-06T09:18:13.000Z,7856
2023-04-06T09:19:29.000Z,7828
2023-04-06T09:20:45.000Z,7760
2023-04-06T09:22:01.000Z,7712
2023-04-06T09:23:18.000Z,7684
2023-04-06T09:24:34.000Z,7696
2023-04-06T09:25:50.000Z,7724
2023-04-06T09:27:06.000Z,7724
2023-04-06T09:28:21.000Z,7808
2023-04-06T09:29:38.000Z,7836
2023-04-06T09:30:54.000Z,7988
2023-04-06T09:32:10.000Z,8228
2023-04-06T09:33:26.000Z,8424
2023-04-06T09:34:42.000Z,8472
2023-04-06T09:35:59.000Z,8408
2023-04-06T09:37:15.000Z,8344
2023-04-06T09:38:31.000Z,8304
2023-04-06T09:39:47.000Z,8288
2023-04-06T09:41:03.000Z,8300
2023-04-06T09:42:20.000Z,8340
2023-04-06T09:43:36.000Z,8388
2023-04-06T09:44:51.000Z,8392
2023-04-06T09:46:07.000Z,8376
2023-04-06T09:47:23.000Z,8408
2023-04-06T09:48:39.000Z,8484
2023-04-06T09:49:56.000Z,8532
2023-04-06T09:51:12.000Z,8556
2023-04-06T09:52:27.000Z,8516
2023-04-06T09:53:43.000Z,8528
2023-04-06T09:54:59.000Z,8664
2023-04-06T09:56:16.000Z,8780
2023-04-06T09:57:32.000Z,8888
2023-04-06T09:58:48.000Z,8928
2023-04-06T10:00:04.000Z,9036
2023-04-06T10:01:20.000Z,9052
2023-04-06T10:02:37.000Z,9112
2023-04-06T10:03:53.000Z,9212
2023-04-06T10:05:09.000Z,9388
2023-04-06T10:06:25.000Z,9472
2023-04-06T10:07:41.000Z,9660
2023-04-06T10:08:57.000Z,9864
2023-04-06T10:10:13.000Z,9920
2023-04-06T10:11:29.000Z,11204
2023-04-06T10:12:45.000Z,28768
2023-04-06T10:14:01.000Z,27296
2023-04-06T10:15:17.000Z,26976
2023-04-06T10:16:34.000Z,34272
2023-04-06T10:17:50.000Z,25408
2023-04-06T10:19:06.000Z,21504
2023-04-06T10:20:22.000Z,22688
2023-04-06T10:21:38.000Z,29984
2023-04-06T10:22:55.000Z,27552
2023-04-06T10:24:11.000Z,27488
2023-04-06T10:25:26.000Z,22784
2023-04-06T10:26:42.000Z,33376
2023-04-06T10:27:58.000Z,32288
2023-04-06T10:29:15.000Z,38208
2023-04-06T10:30:31.000Z,29312
2023-04-06T10:31:47.000Z,32576
2023-04-06T10:33:03.000Z,20128
2023-04-06T10:34:19.000Z,29824
2023-04-06T10:35:36.000Z,38624
2023-04-06T10:36:52.000Z,34848
2023-04-06T10:38:08.000Z,58144
2023-04-06T10:39:24.000Z,34688
2023-04-06T10:40:40.794Z,43520
2023-04-06T10:41:56.000Z,33568
2023-04-06T10:44:28.000Z,29024
2023-04-06T10:45:44.000Z,56288
2023-04-06T10:47:00.000Z,66496
2023-04-06T10:48:16.000Z,39552
2023-04-06T10:49:33.000Z,28608
2023-04-06T10:50:49.000Z,24544
2023-04-06T10:52:05.000Z,23616
2023-04-06T10:53:21.000Z,24064
2023-04-06T10:54:37.000Z,27200
2023-04-06T10:55:54.000Z,27392
2023-04-06T10:57:10.000Z,50080
2023-04-06T10:58:25.000Z,27904
2023-04-06T10:59:41.000Z,24000
2023-04-06T11:00:57.000Z,36960
2023-04-06T11:02:14.000Z,26112
2023-04-06T11:03:30.000Z,24864
2023-04-06T11:04:46.000Z,23040
2023-04-06T11:06:02.000Z,27136
2023-04-06T11:07:18.000Z,22464
2023-04-06T11:08:35.000Z,26816
2023-04-06T11:09:51.000Z,34304
2023-04-06T11:11:07.000Z,25728
2023-04-06T11:12:23.000Z,22592
2023-04-06T11:13:39.000Z,23840
2023-04-06T11:14:54.000Z,25824
2023-04-06T11:16:11.000Z,25312
2023-04-06T11:17:27.000Z,27072
2023-04-06T11:18:43.000Z,25088
2023-04-06T11:19:59.000Z,37536
2023-04-06T11:21:15.000Z,23808
2023-04-06T11:22:32.000Z,27232
2023-04-06T11:23:48.000Z,23360
2023-04-06T11:25:04.000Z,20608
2023-04-06T11:26:20.000Z,20320
2023-04-06T11:27:36.000Z,20704
2023-04-06T11:28:53.000Z,20032
2023-04-06T11:30:09.000Z,19808
2023-04-06T11:31:24.000Z,20064
2023-04-06T11:32:40.000Z,20288
2023-04-06T11:33:56.000Z,20544
2023-04-06T11:35:13.000Z,21696
2023-04-06T11:36:29.000Z,21952
2023-04-06T11:37:45.000Z,22784
2023-04-06T11:39:01.000Z,22528
2023-04-06T11:40:17.000Z,22368
2023-04-06T11:41:34.000Z,22272
2023-04-06T11:42:50.000Z,22272
2023-04-06T11:44:06.000Z,22848
2023-04-06T11:45:22.000Z,22720
2023-04-06T11:46:38.000Z,22432
2023-04-06T11:47:53.000Z,21472
2023-04-06T11:49:10.000Z,20960
2023-04-06T11:50:26.000Z,20960
2023-04-06T11:51:42.000Z,20672
2023-04-06T11:52:58.000Z,20512
2023-04-06T11:54:14.000Z,19936
2023-04-06T11:55:31.000Z,20224
2023-04-06T11:56:47.000Z,20800
2023-04-06T11:58:03.000Z,21120
2023-04-06T11:59:19.000Z,21728
2023-04-06T12:00:35.000Z,22272
2023-04-06T12:01:52.000Z,22976
2023-04-06T12:03:08.000Z,25184
2023-04-06T12:04:23.000Z,27360
2023-04-06T12:05:39.000Z,29984
2023-04-06T12:06:55.000Z,28352
2023-04-06T12:08:12.000Z,30112
2023-04-06T12:09:28.000Z,30400
2023-04-06T12:10:44.000Z,28960
2023-04-06T12:12:00.000Z,28160
2023-04-06T12:13:16.000Z,30880
2023-04-06T12:14:32.000Z,29728
2023-04-06T12:15:49.000Z,31328
2023-04-06T12:17:05.000Z,34656
2023-04-06T12:18:21.000Z,47552
2023-04-06T12:19:37.000Z,31328
2023-04-06T12:20:52.000Z,37440
2023-04-06T12:22:09.000Z,33376
2023-04-06T12:23:25.000Z,30560
2023-04-06T12:24:41.000Z,27584
2023-04-06T12:25:57.000Z,28448
2023-04-06T12:27:13.000Z,32096
2023-04-06T12:28:30.000Z,26304
2023-04-06T12:29:46.000Z,23968
2023-04-06T12:31:02.000Z,25056
2023-04-06T12:32:18.000Z,26624
2023-04-06T12:33:34.000Z,27968
2023-04-06T12:34:51.000Z,29248
2023-04-06T12:36:07.000Z,27232
2023-04-06T12:37:22.000Z,30304
2023-04-06T12:38:38.000Z,29760
2023-04-06T12:39:54.000Z,34176
2023-04-06T12:41:11.000Z,33536
2023-04-06T12:42:27.000Z,36224
2023-04-06T12:43:43.000Z,38176
2023-04-06T12:44:59.000Z,39584
2023-04-06T12:46:15.000Z,35712
2023-04-06T12:47:31.000Z,32736
2023-04-06T12:48:48.000Z,28864
2023-04-06T12:50:04.000Z,28672
2023-04-06T12:51:20.000Z,27840
2023-04-06T12:52:36.000Z,26112
2023-04-06T12:53:51.000Z,25760
2023-04-06T12:55:08.000Z,25664
2023-04-06T12:56:24.000Z,25984
2023-04-06T12:57:40.000Z,26944
2023-04-06T13:00:12.000Z,24928
2023-04-06T13:01:29.000Z,26080
2023-04-06T13:02:45.000Z,26176
2023-04-06T13:04:01.000Z,24992
2023-04-06T13:05:17.000Z,24864
2023-04-06T13:06:33.000Z,21888
2023-04-06T13:07:50.000Z,21152
2023-04-06T13:09:06.000Z,23168
2023-04-06T13:10:21.000Z,23296
2023-04-06T13:11:37.000Z,22720
2023-04-06T13:12:53.000Z,20448
2023-04-06T13:14:09.000Z,20288
2023-04-06T13:15:26.000Z,21344
2023-04-06T13:16:42.000Z,20576
2023-04-06T13:17:58.000Z,19968
2023-04-06T13:19:14.000Z,19712
2023-04-06T13:20:30.000Z,19360
2023-04-06T13:21:47.000Z,18624
2023-04-06T13:23:03.000Z,18336
2023-04-06T13:24:19.000Z,19968
2023-04-06T13:25:35.000Z,20544
2023-04-06T13:26:50.000Z,19968
2023-04-06T13:28:07.000Z,19360
2023-04-06T13:29:23.000Z,18592
2023-04-06T13:30:39.000Z,16928
2023-04-06T13:31:55.000Z,15864
2023-04-06T13:33:11.000Z,15696
2023-04-06T13:34:28.000Z,15840
2023-04-06T13:35:44.000Z,15460
2023-04-06T13:37:00.000Z,15776
2023-04-06T13:38:16.000Z,15328
2023-04-06T13:39:32.000Z,14480
2023-04-06T13:40:48.000Z,14644
2023-04-06T13:42:05.145Z,14592
2023-04-06T13:43:20.000Z,14376
2023-04-06T13:44:36.000Z,14152
2023-04-06T13:45:52.000Z,13816
2023-04-06T13:47:08.000Z,13392
2023-04-06T13:48:25.000Z,12924
2023-04-06T13:49:41.000Z,12912
2023-04-06T13:50:57.000Z,12828
2023-04-06T13:52:13.000Z,12624
2023-04-06T13:53:29.000Z,12524
2023-04-06T13:54:46.000Z,12396
2023-04-06T13:56:02.000Z,12504
2023-04-06T13:57:18.000Z,12332
2023-04-06T13:58:34.000Z,12056
2023-04-06T13:59:49.000Z,11892
2023-04-06T14:01:06.000Z,11744
2023-04-06T14:02:22.000Z,11604
2023-04-06T14:03:38.000Z,11496
2023-04-06T14:04:54.000Z,11392
2023-04-06T14:06:10.000Z,11292
2023-04-06T14:07:26.000Z,11212
2023-04-06T14:08:42.000Z,11140
2023-04-06T14:09:58.000Z,11060
2023-04-06T14:11:14.000Z,11008
2023-04-06T14:12:30.000Z,10960
2023-04-06T14:13:46.000Z,10888
2023-04-06T14:15:03.000Z,10824
2023-04-06T14:16:19.000Z,10772
2023-04-06T14:17:35.000Z,10692
2023-04-06T14:18:51.000Z,10668
2023-04-06T14:20:07.000Z,10636
2023-04-06T14:21:24.000Z,10572
2023-04-06T14:22:40.000Z,10372
2023-04-06T14:23:55.000Z,10188
2023-04-06T14:25:11.000Z,9968
2023-04-06T14:26:27.000Z,9764
2023-04-06T14:27:44.000Z,9580
2023-04-06T14:29:00.000Z,9464
2023-04-06T14:30:16.000Z,9404
2023-04-06T14:31:32.000Z,9352
2023-04-06T14:32:48.000Z,9292
2023-04-06T14:34:05.000Z,9232
2023-04-06T14:35:21.000Z,9212
2023-04-06T14:36:37.000Z,9144
2023-04-06T14:37:53.000Z,9156
2023-04-06T14:39:09.000Z,9132
2023-04-06T14:40:25.000Z,9072
2023-04-06T14:41:41.000Z,8908
2023-04-06T14:42:57.000Z,8672
2023-04-06T14:44:13.000Z,8308
2023-04-06T14:45:29.000Z,8080
2023-04-06T14:46:45.000Z,7964
2023-04-06T14:48:02.000Z,7900
2023-04-06T14:49:18.000Z,7756
2023-04-06T14:50:34.000Z,7692
2023-04-06T14:51:50.000Z,7456
2023-04-06T14:53:06.000Z,7332
2023-04-06T14:54:23.000Z,7360
2023-04-06T14:55:39.000Z,7440
2023-04-06T14:56:54.000Z,7488
2023-04-06T14:58:10.000Z,7164
2023-04-06T14:59:26.000Z,6816
2023-04-06T15:00:43.000Z,6712
2023-04-06T15:01:59.000Z,6856
2023-04-06T15:03:15.000Z,7052
2023-04-06T15:04:31.000Z,7220
2023-04-06T15:05:47.000Z,7476
2023-04-06T15:07:04.000Z,7556
2023-04-06T15:08:20.000Z,7596
2023-04-06T15:09:36.000Z,7652
2023-04-06T15:10:52.000Z,7632
2023-04-06T15:12:08.000Z,7504
2023-04-06T15:13:23.000Z,7328
2023-04-06T15:14:40.000Z,7136
2023-04-06T15:15:56.000Z,7068
2023-04-06T15:17:12.000Z,6952
2023-04-06T15:18:28.000Z,6772
2023-04-06T15:19:44.000Z,6640
2023-04-06T15:21:01.000Z,6572
2023-04-06T15:22:17.000Z,6512
2023-04-06T15:23:33.000Z,6444
2023-04-06T15:24:49.000Z,6400
2023-04-06T15:26:05.000Z,6372
2023-04-06T15:27:22.000Z,6344
2023-04-06T15:28:38.000Z,6328
2023-04-06T15:29:53.000Z,6324
2023-04-06T15:31:09.653Z,6352
2023-04-06T15:32:25.000Z,6440
2023-04-06T15:33:42.000Z,6548
2023-04-06T15:34:58.000Z,6632
2023-04-06T15:36:14.000Z,6688
2023-04-06T15:37:30.000Z,6760
2023-04-06T15:38:46.000Z,6812
2023-04-06T15:40:03.000Z,6912
2023-04-06T15:41:19.000Z,6952
2023-04-06T15:42:35.000Z,6928
2023-04-06T15:43:51.000Z,6856
2023-04-06T15:45:07.000Z,6740
2023-04-06T15:46:22.000Z,6544
2023-04-06T15:47:39.000Z,6328
2023-04-06T15:48:55.000Z,6128
2023-04-06T15:50:11.000Z,6068
2023-04-06T15:51:27.000Z,5992
2023-04-06T15:52:43.000Z,5836
2023-04-06T15:54:00.000Z,5624
2023-04-06T15:55:16.000Z,5348
2023-04-06T15:56:32.000Z,5020
2023-04-06T15:57:48.000Z,4804
2023-04-06T15:59:04.000Z,4664
2023-04-06T16:00:21.000Z,4508
2023-04-06T16:01:37.000Z,4512
2023-04-06T16:02:52.000Z,4532
2023-04-06T16:04:08.000Z,4568
2023-04-06T16:05:24.000Z,4680
2023-04-06T16:06:41.000Z,4668
2023-04-06T16:07:57.000Z,4644
2023-04-06T16:09:13.000Z,4596
2023-04-06T16:10:29.000Z,4556
2023-04-06T16:11:45.000Z,4476
2023-04-06T16:13:01.000Z,4404
2023-04-06T16:14:18.000Z,4304
2023-04-06T16:15:34.000Z,4180
2023-04-06T16:16:50.000Z,4068
2023-04-06T16:18:06.000Z,3972
2023-04-06T16:19:21.000Z,3864
2023-04-06T16:20:38.000Z,3760
2023-04-06T16:21:54.000Z,3648
2023-04-06T16:23:10.000Z,3548
2023-04-06T16:24:26.000Z,3452
2023-04-06T16:25:42.000Z,3356
2023-04-06T16:26:59.000Z,3264
2023-04-06T16:28:15.000Z,3168
2023-04-06T16:29:31.000Z,3088
2023-04-06T16:30:47.000Z,3008
2023-04-06T16:32:03.000Z,2932
2023-04-06T16:33:20.000Z,2856
2023-04-06T16:34:36.000Z,2768
2023-04-06T16:35:51.000Z,2680
2023-04-06T16:37:07.000Z,2616
2023-04-06T16:38:23.000Z,2544
2023-04-06T16:39:40.000Z,2484
2023-04-06T16:40:56.000Z,2440
2023-04-06T16:42:12.000Z,2396
2023-04-06T16:43:28.000Z,2352
2023-04-06T16:44:44.000Z,2312
2023-04-06T16:46:00.000Z,2268
2023-04-06T16:47:17.000Z,2228
2023-04-06T16:48:33.000Z,2196
2023-04-06T16:49:49.000Z,2160
2023-04-06T16:51:05.000Z,2120
2023-04-06T16:52:20.000Z,2076
2023-04-06T16:53:37.000Z,2040
2023-04-06T16:54:53.000Z,2004
2023-04-06T16:56:09.000Z,1972
2023-04-06T16:57:25.000Z,1932
2023-04-06T16:58:41.000Z,1892
2023-04-06T16:59:58.000Z,1848
2023-04-06T17:01:14.000Z,1812
2023-04-06T17:02:30.000Z,1776
2023-04-06T17:03:46.000Z,1720
2023-04-06T17:05:02.000Z,1656
2023-04-06T17:06:19.000Z,1600
2023-04-06T17:07:35.000Z,1552
2023-04-06T17:08:50.000Z,1504
2023-04-06T17:10:06.000Z,1452
2023-04-06T17:11:22.000Z,1392
2023-04-06T17:12:38.000Z,1352
2023-04-06T17:13:55.000Z,1304